Time;durP1;ratioP1;P1;durP2;ratioP2;P2;SDS_P1;SDS_P2;PMS_P1;PMS_P2;Temp;Humidity;BMP_temperature;BMP_pressure;BME280_temperature;BME280_humidity;BME280_pressure;Samples;Min_cycle;Max_cycle;Signal;HPM_P1;HPM_P2
2023/12/04 05:02:47;;;;;;;16.92;7.65;;;;;;;-3.15;68.25;95840.94;5104902;27;20400;-83
2023/12/04 05:05:13;;;;;;;15.57;7.65;;;;;;;-4.05;67.93;95668.78;5097773;28;20035;-85
2023/12/04 05:07:38;;;;;;;15.05;7.50;;;;;;;-2.36;67.36;95934.94;5103880;28;20090;-82
2023/12/04 05:10:04;;;;;;;16.83;7.90;;;;;;;-3.18;67.82;95773.81;5097653;28;20057;-81
2023/12/04 05:12:30;;;;;;;19.13;8.43;;;;;;;-2.25;67.03;95923.31;5110350;28;20028;-83
2023/12/04 05:14:55;;;;;;;15.65;7.78;;;;;;;-2.72;67.20;95842.06;5114523;28;20396;-87
2023/12/04 05:17:21;;;;;;;13.70;8.20;;;;;;;-2.29;66.85;95881.31;5111180;28;20114;-87
2023/12/04 05:19:47;;;;;;;18.88;9.10;;;;;;;-1.84;66.25;95957.56;5109281;28;20080;-85
2023/12/04 05:22:14;;;;;;;18.50;8.10;;;;;;;-2.76;66.05;95791.50;5152605;22;20019;-82
2023/12/04 05:24:40;;;;;;;16.65;8.20;;;;;;;-1.81;66.28;95950.19;5051315;28;20060;-80
2023/12/04 05:27:07;;;;;;;18.30;9.57;;;;;;;-1.76;66.69;95950.47;5048785;28;20045;-80
2023/12/04 05:29:32;;;;;;;20.55;9.48;;;;;;;-1.83;66.44;95912.38;5032629;28;20047;-81
2023/12/04 05:31:58;;;;;;;16.08;8.57;;;;;;;-1.70;65.21;95959.34;5027548;28;20029;-82
2023/12/04 05:34:24;;;;;;;19.17;9.57;;;;;;;-1.82;65.87;95940.78;5029639;28;20070;-82
2023/12/04 05:36:49;;;;;;;18.58;9.52;;;;;;;-2.07;65.95;95932.44;5024499;28;20032;-81
2023/12/04 05:39:15;;;;;;;18.63;8.98;;;;;;;-2.20;66.11;95913.19;5029490;28;20527;-82
2023/12/04 05:41:40;;;;;;;21.65;10.02;;;;;;;-1.84;66.23;95955.75;5043966;28;20036;-81
2023/12/04 05:44:06;;;;;;;19.48;8.52;;;;;;;-2.21;65.61;95909.78;5053456;28;20207;-81
2023/12/04 05:46:32;;;;;;;18.98;9.23;;;;;;;-2.12;65.98;95923.53;5034122;28;20415;-82
2023/12/04 05:48:57;;;;;;;20.30;9.65;;;;;;;-2.16;66.04;95923.09;5043782;28;20020;-82
2023/12/04 05:51:23;;;;;;;20.95;9.50;;;;;;;-2.13;66.23;95907.13;5029689;28;20036;-80
2023/12/04 05:53:49;;;;;;;18.60;8.88;;;;;;;-2.13;65.98;95898.50;5040902;28;20036;-82
2023/12/04 05:56:14;;;;;;;16.95;7.95;;;;;;;-1.97;65.56;95932.16;5048920;28;20047;-81
2023/12/04 05:58:40;;;;;;;20.08;8.75;;;;;;;-1.87;66.07;95978.69;5051821;28;20036;-80
2023/12/04 06:01:06;;;;;;;17.60;8.90;;;;;;;-1.92;66.27;95970.63;5056737;28;20090;-82
2023/12/04 06:03:32;;;;;;;18.23;9.13;;;;;;;-2.15;66.05;95944.69;5058264;28;20406;-80
2023/12/04 06:05:57;;;;;;;18.02;8.65;;;;;;;-2.14;66.98;95972.28;5053117;28;20567;-82
2023/12/04 06:08:23;;;;;;;16.98;9.10;;;;;;;-2.33;66.61;95945.78;5055157;28;20029;-80
2023/12/04 06:10:48;;;;;;;22.75;8.65;;;;;;;-2.60;66.81;95891.00;5066527;28;20037;-80
2023/12/04 06:13:14;;;;;;;22.35;10.70;;;;;;;-1.94;66.67;95970.81;5031133;28;20044;-80
2023/12/04 06:15:40;;;;;;;18.35;8.63;;;;;;;-2.38;66.01;95897.94;5046381;28;20043;-81
2023/12/04 06:18:05;;;;;;;25.52;10.63;;;;;;;-2.20;65.82;95931.38;5039541;28;20457;-81
2023/12/04 06:20:31;;;;;;;17.42;9.05;;;;;;;-1.80;66.50;95980.41;5032730;28;20044;-81
2023/12/04 06:22:56;;;;;;;19.63;9.23;;;;;;;-3.02;66.36;95761.69;5013119;28;20045;-82
2023/12/04 06:25:22;;;;;;;19.30;9.48;;;;;;;-1.89;65.68;95965.06;5023505;28;20033;-81
2023/12/04 06:27:48;;;;;;;17.48;9.55;;;;;;;-1.81;65.94;95997.00;5036987;28;20423;-82
2023/12/04 06:30:14;;;;;;;19.92;10.02;;;;;;;-1.98;66.11;95943.53;5030860;28;20043;-82
2023/12/04 06:32:40;;;;;;;18.27;9.55;;;;;;;-2.09;65.79;95925.78;5038260;28;20063;-81
2023/12/04 06:35:06;;;;;;;18.90;8.77;;;;;;;-2.00;65.93;95968.91;5040919;28;20033;-82
2023/12/04 06:37:32;;;;;;;20.98;9.98;;;;;;;-2.19;66.12;95917.41;5039248;28;20033;-83
2023/12/04 06:40:01;;;;;;;19.50;10.50;;;;;;;-1.72;66.22;95980.34;5036551;28;20036;-82
2023/12/04 06:42:28;;;;;;;15.57;8.95;;;;;;;-2.00;65.58;95948.94;5029185;28;20082;-82
2023/12/04 06:44:54;;;;;;;22.38;9.70;;;;;;;-2.23;65.48;95916.97;5040681;28;20168;-82
2023/12/04 06:47:23;;;;;;;23.48;10.32;;;;;;;-3.23;65.95;95757.16;5032241;28;20100;-82
2023/12/04 06:49:48;;;;;;;22.48;9.50;;;;;;;-1.87;65.80;95963.91;5037388;28;20033;-83
2023/12/04 06:52:14;;;;;;;19.48;8.63;;;;;;;-1.61;65.33;95977.31;5037802;28;20040;-82
2023/12/04 06:54:39;;;;;;;19.55;8.65;;;;;;;-1.54;64.82;96029.44;5056035;28;20025;-82
2023/12/04 06:57:05;;;;;;;17.65;8.98;;;;;;;-2.03;65.06;95951.06;5034470;28;20041;-82
2023/12/04 06:59:30;;;;;;;19.48;9.57;;;;;;;-1.83;65.18;95993.75;5034639;28;20044;-82
2023/12/04 07:01:56;;;;;;;15.63;8.25;;;;;;;-2.06;64.61;95969.63;5029394;28;20651;-82
2023/12/04 07:04:21;;;;;;;18.45;8.90;;;;;;;-1.82;65.02;96023.16;5039989;28;20055;-82
2023/12/04 07:06:48;;;;;;;16.40;8.45;;;;;;;-1.84;65.32;96002.56;5052464;28;20167;-80
2023/12/04 07:09:14;;;;;;;16.02;8.93;;;;;;;-1.78;65.44;96008.84;5033684;28;20150;-82
2023/12/04 07:11:39;;;;;;;18.65;9.02;;;;;;;-2.06;65.09;95972.22;5018486;28;20035;-80
2023/12/04 07:14:05;;;;;;;16.92;8.40;;;;;;;-1.88;65.55;95956.28;5022472;28;20064;-80
2023/12/04 07:16:31;;;;;;;19.40;8.90;;;;;;;-1.43;65.49;96028.16;5026495;28;20072;-81
2023/12/04 07:18:56;;;;;;;28.60;9.85;;;;;;;-1.95;64.77;95922.38;5029982;28;20076;-79
2023/12/04 07:21:22;;;;;;;18.83;9.15;;;;;;;-1.50;64.86;95994.25;5029806;28;20099;-80
2023/12/04 07:23:47;;;;;;;19.55;9.15;;;;;;;-1.53;64.19;95976.41;5033595;28;20052;-79
2023/12/04 07:26:13;;;;;;;21.35;8.85;;;;;;;-1.18;64.24;96021.72;5031236;28;20025;-81
2023/12/04 07:28:38;;;;;;;19.23;10.13;;;;;;;-1.18;64.51;96003.50;5030872;28;20127;-79
2023/12/04 07:31:04;;;;;;;19.40;8.50;;;;;;;-1.44;63.16;95984.91;5028226;28;20055;-78
2023/12/04 07:33:30;;;;;;;17.92;9.18;;;;;;;-1.50;63.79;96014.25;5025778;28;20495;-79
2023/12/04 07:35:55;;;;;;;16.15;8.63;;;;;;;-1.61;63.76;95995.53;5024407;28;20078;-80
2023/12/04 07:38:22;;;;;;;18.95;9.00;;;;;;;-1.82;63.86;95958.97;5034491;28;20528;-80
2023/12/04 07:40:47;;;;;;;19.50;9.52;;;;;;;-1.34;63.24;96046.13;5028022;28;20453;-79
2023/12/04 07:43:14;;;;;;;16.00;9.00;;;;;;;-1.69;63.35;96019.00;5016268;28;20037;-82
2023/12/04 07:45:40;;;;;;;19.02;8.52;;;;;;;-1.39;62.81;96037.25;5034530;28;20028;-80
2023/12/04 07:48:06;;;;;;;13.63;7.53;;;;;;;-1.34;63.08;96040.13;5042466;28;20137;-80
2023/12/04 07:50:31;;;;;;;14.65;7.90;;;;;;;-1.51;62.86;96015.25;5038069;28;20466;-80
2023/12/04 07:52:57;;;;;;;14.13;7.90;;;;;;;-1.47;62.93;96009.50;5032816;28;20092;-81
2023/12/04 07:55:22;;;;;;;17.98;8.93;;;;;;;-2.07;62.64;95893.44;5082481;22;20080;-84
2023/12/04 07:57:48;;;;;;;17.58;9.35;;;;;;;-2.96;62.63;95722.06;5021427;28;20068;-85
2023/12/04 08:00:14;;;;;;;17.42;8.30;;;;;;;-0.95;62.16;96047.66;5026395;28;20048;-83
2023/12/04 08:02:44;;;;;;;17.10;7.25;;;;;;;-1.25;61.20;96015.63;5059963;28;20029;-82
2023/12/04 08:05:10;;;;;;;18.25;8.00;;;;;;;-2.83;61.10;95771.59;5039155;28;20120;-84
2023/12/04 08:07:35;;;;;;;13.65;7.13;;;;;;;-1.46;60.36;95986.91;5040324;28;20167;-84
2023/12/04 08:10:01;;;;;;;14.45;7.00;;;;;;;-3.74;60.96;95654.97;5036677;28;20463;-81
2023/12/04 08:12:30;;;;;;;14.45;6.90;;;;;;;-3.06;59.77;95765.63;5022385;28;20721;-83
2023/12/04 08:14:55;;;;;;;13.23;6.50;;;;;;;-2.72;60.26;95803.13;5030401;28;20036;-85
2023/12/04 08:17:22;;;;;;;16.13;6.75;;;;;;;-2.90;60.03;95789.63;5034026;28;20029;-85
2023/12/04 08:19:48;;;;;;;16.63;6.68;;;;;;;-1.11;60.11;96043.44;5032989;28;20032;-84
2023/12/04 08:22:13;;;;;;;15.93;8.15;;;;;;;-1.01;60.63;96051.78;5038188;28;20029;-85
2023/12/04 08:24:45;;;;;;;15.77;8.13;;;;;;;-3.14;59.48;95704.25;5035163;28;20088;-86
2023/12/04 08:27:11;;;;;;;12.23;6.47;;;;;;;-5.17;59.37;95384.63;5031229;28;20083;-86
2023/12/04 08:29:36;;;;;;;16.15;6.95;;;;;;;-2.11;59.97;95891.34;5035283;28;20037;-84
2023/12/04 08:32:02;;;;;;;14.25;6.95;;;;;;;-2.80;60.16;95764.25;5028773;28;20040;-87
2023/12/04 08:34:27;;;;;;;15.00;7.32;;;;;;;-1.65;60.10;95942.22;5028562;28;20033;-84
2023/12/04 08:36:53;;;;;;;12.35;6.47;;;;;;;-1.09;60.78;96044.06;5012646;28;20033;-86
2023/12/04 08:39:19;;;;;;;14.18;7.20;;;;;;;-2.46;60.42;95804.50;5022405;28;20132;-85
2023/12/04 08:41:47;;;;;;;13.73;6.78;;;;;;;-3.60;60.73;95644.66;5018658;28;20044;-84
2023/12/04 08:44:12;;;;;;;12.60;7.40;;;;;;;-2.38;60.18;95810.44;5012775;28;20041;-85
2023/12/04 08:46:38;;;;;;;12.75;7.28;;;;;;;-3.15;60.09;95668.91;5034280;28;20049;-86
2023/12/04 08:49:04;;;;;;;12.35;7.18;;;;;;;-0.95;59.74;96022.44;5023785;28;20029;-84
2023/12/04 08:51:30;;;;;;;11.48;5.90;;;;;;;-1.95;58.08;95894.59;5033193;28;20632;-84
2023/12/04 08:53:56;;;;;;;11.18;6.13;;;;;;;-1.03;59.91;96032.94;5037597;28;20029;-85
2023/12/04 08:56:21;;;;;;;18.52;7.88;;;;;;;-0.89;60.14;96028.69;5038661;28;20071;-84
2023/12/04 08:58:49;;;;;;;13.40;6.03;;;;;;;-2.19;58.82;95769.31;5034147;28;20038;-84
2023/12/04 09:01:15;;;;;;;13.82;6.35;;;;;;;-0.56;58.20;96055.16;5039599;28;20071;-85
2023/12/04 09:03:44;;;;;;;12.98;7.15;;;;;;;-0.88;58.56;95967.81;5032675;28;20041;-85
2023/12/04 09:06:10;;;;;;;13.05;6.53;;;;;;;-0.43;58.26;96055.28;5036876;28;20128;-85
2023/12/04 09:08:35;;;;;;;15.48;6.85;;;;;;;-0.56;58.27;96021.28;5032705;28;20578;-86
2023/12/04 09:11:01;;;;;;;22.95;7.70;;;;;;;-2.31;58.08;95745.59;5047459;28;20466;-85
2023/12/04 09:13:26;;;;;;;13.50;6.78;;;;;;;-0.82;57.59;95959.28;5040609;28;20349;-85
2023/12/04 09:15:52;;;;;;;14.73;6.78;;;;;;;-0.80;57.97;95939.06;5037934;28;20120;-84
2023/12/04 09:18:18;;;;;;;12.13;6.32;;;;;;;-0.22;56.98;96023.22;5033915;28;20047;-84
2023/12/04 09:20:44;;;;;;;16.02;6.85;;;;;;;-0.29;57.72;96017.13;5033121;28;20572;-83
2023/12/04 09:23:09;;;;;;;11.68;6.90;;;;;;;-0.28;57.10;95992.69;5034927;28;20454;-83
2023/12/04 09:25:35;;;;;;;11.48;6.32;;;;;;;-0.44;56.34;95931.19;5039715;28;20037;-84
2023/12/04 09:28:01;;;;;;;12.25;6.15;;;;;;;-1.38;55.88;95755.25;5036495;28;20107;-85
2023/12/04 09:30:26;;;;;;;13.85;7.07;;;;;;;-0.57;55.43;95858.13;5035216;28;20472;-83
2023/12/04 09:32:52;;;;;;;12.52;6.68;;;;;;;0.29;55.43;95966.50;5038666;28;20028;-85
2023/12/04 09:35:18;;;;;;;18.27;7.97;;;;;;;0.41;55.78;95974.59;5043015;28;20039;-85
2023/12/04 09:37:43;;;;;;;23.33;10.27;;;;;;;0.33;55.29;95937.22;5037632;28;20056;-84
2023/12/04 09:40:09;;;;;;;20.88;10.18;;;;;;;0.93;55.16;96010.66;5036456;28;20036;-85
2023/12/04 09:42:37;;;;;;;18.83;8.88;;;;;;;0.53;54.57;95933.94;5039978;28;20044;-86
2023/12/04 09:45:03;;;;;;;16.08;5.97;;;;;;;-0.20;54.54;95831.75;5049891;28;20072;-83
2023/12/04 09:47:32;;;;;;;16.33;6.68;;;;;;;1.23;54.54;96017.22;5037474;28;20086;-84
2023/12/04 09:49:58;;;;;;;23.38;7.45;;;;;;;1.40;54.41;95996.78;5035927;28;20045;-84
2023/12/04 09:52:27;;;;;;;12.52;6.97;;;;;;;1.53;54.76;95989.78;5026822;28;20041;-86
2023/12/04 09:54:53;;;;;;;17.58;7.28;;;;;;;0.67;53.87;95844.25;5022790;28;20068;-87
2023/12/04 09:57:18;;;;;;;17.48;7.38;;;;;;;0.81;53.91;95850.31;5020027;28;20076;-86
2023/12/04 09:59:45;;;;;;;14.30;6.50;;;;;;;1.06;53.14;95870.50;5016063;28;20417;-84
2023/12/04 10:02:11;;;;;;;18.15;5.90;;;;;;;1.82;52.69;95966.94;5013129;28;20244;-84
2023/12/04 10:04:37;;;;;;;13.23;7.22;;;;;;;1.45;52.56;95923.84;5019977;28;20123;-86
2023/12/04 10:07:05;;;;;;;14.07;7.00;;;;;;;1.58;53.05;95899.50;5026612;28;20042;-83
2023/12/04 10:09:30;;;;;;;15.90;7.57;;;;;;;1.78;51.57;95861.09;5014597;28;20046;-86
2023/12/04 10:11:57;;;;;;;13.45;7.03;;;;;;;3.33;51.23;95979.78;5024985;28;20114;-85
2023/12/04 10:14:23;;;;;;;15.73;7.35;;;;;;;4.38;49.02;95977.50;5032303;28;20037;-83
2023/12/04 10:16:49;;;;;;;16.70;7.50;;;;;;;5.18;46.42;95979.13;5038729;28;20486;-85
2023/12/04 10:19:31;;;;;;;14.10;6.78;;;;;;;5.35;44.44;95898.56;5035864;28;20047;-84
2023/12/04 10:21:59;;;;;;;12.43;6.95;;;;;;;6.28;43.03;95978.88;5036946;28;20426;-86
2023/12/04 10:24:35;;;;;;;11.80;6.57;;;;;;;7.19;42.06;95971.16;5032537;28;20425;-83
2023/12/04 10:27:11;;;;;;;14.60;7.35;;;;;;;5.63;41.02;95708.53;5043829;28;20037;-83
2023/12/04 10:29:45;;;;;;;15.43;7.32;;;;;;;7.20;40.11;95850.63;5043231;28;20044;-85
2023/12/04 10:32:11;;;;;;;13.55;7.30;;;;;;;8.41;38.82;95952.28;5040072;28;20120;-85
2023/12/04 10:34:37;;;;;;;12.85;7.32;;;;;;;6.51;39.01;95697.75;5043854;28;20176;-86
2023/12/04 10:37:04;;;;;;;12.70;6.40;;;;;;;8.00;38.99;95942.88;5039051;28;20475;-83
2023/12/04 10:39:31;;;;;;;15.70;8.35;;;;;;;7.72;39.38;95962.16;5044426;28;20067;-84
2023/12/04 10:42:03;;;;;;;15.65;7.05;;;;;;;7.13;39.85;95852.59;5034988;28;20341;-85
2023/12/04 10:44:31;;;;;;;12.57;7.43;;;;;;;7.86;39.18;95934.44;5043822;28;20041;-86
2023/12/04 10:47:00;;;;;;;13.77;7.68;;;;;;;7.25;38.36;95811.13;5040231;28;20037;-84
2023/12/04 10:49:28;;;;;;;16.55;7.20;;;;;;;7.71;40.02;95944.72;5039288;28;20136;-84
2023/12/04 10:51:57;;;;;;;15.80;8.23;;;;;;;6.82;40.53;95857.28;5039749;28;20457;-83
2023/12/04 10:54:23;;;;;;;14.57;8.35;;;;;;;6.59;41.34;95871.31;5035068;28;20033;-86
2023/12/04 10:56:52;;;;;;;18.42;8.27;;;;;;;7.07;41.14;95941.38;5042012;28;20057;-83
2023/12/04 10:59:26;;;;;;;17.27;8.52;;;;;;;6.44;42.03;95899.16;5038032;28;20260;-84
2023/12/04 11:01:55;;;;;;;15.55;7.80;;;;;;;6.25;42.10;95879.25;5040965;28;20148;-84
2023/12/04 11:04:26;;;;;;;18.42;8.02;;;;;;;4.76;42.80;95670.69;5039590;28;20091;-87
2023/12/04 11:06:54;;;;;;;16.98;7.85;;;;;;;5.72;43.66;95866.91;5052450;28;20056;-85
2023/12/04 11:09:21;;;;;;;15.02;7.95;;;;;;;5.74;43.85;95835.88;5063932;28;20117;-87
2023/12/04 11:11:53;;;;;;;19.05;8.38;;;;;;;5.40;43.16;95783.00;5048862;28;20052;-85
2023/12/04 11:14:22;;;;;;;14.63;8.07;;;;;;;5.92;43.30;95888.47;5081584;28;20567;-85
2023/12/04 11:17:00;;;;;;;13.18;7.57;;;;;;;5.71;44.37;95884.53;5065360;22;20073;-88
2023/12/04 11:19:41;;;;;;;12.95;7.47;;;;;;;6.24;44.13;95917.94;5045418;28;20127;-88
2023/12/04 11:22:10;;;;;;;17.00;8.35;;;;;;;5.47;44.56;95803.94;5048522;28;20097;-88
2023/12/04 11:24:36;;;;;;;14.88;8.32;;;;;;;3.55;44.52;95552.78;5042135;28;20040;-87
2023/12/04 11:27:03;;;;;;;32.97;11.35;;;;;;;5.71;45.38;95908.22;5067620;22;20057;-80
2023/12/04 11:29:33;;;;;;;15.57;9.00;;;;;;;4.62;45.20;95713.97;5012748;28;20289;-80
2023/12/04 11:31:58;;;;;;;18.70;8.85;;;;;;;4.72;45.47;95760.72;4984204;28;20499;-79
2023/12/04 11:34:24;;;;;;;16.48;8.40;;;;;;;3.06;44.94;95483.78;4990430;28;20492;-79
2023/12/04 11:36:51;;;;;;;13.52;7.88;;;;;;;3.86;45.20;95597.22;5010549;28;20772;-79
2023/12/04 11:39:19;;;;;;;14.52;8.15;;;;;;;4.70;45.22;95718.09;5006523;28;20113;-80
2023/12/04 11:41:45;;;;;;;17.40;9.80;;;;;;;5.76;45.38;95865.41;4969163;28;20414;-78
2023/12/04 11:44:14;;;;;;;19.23;9.57;;;;;;;5.93;45.41;95892.72;5012827;28;20436;-80
2023/12/04 11:47:02;;;;;;;16.17;8.52;;;;;;;6.07;45.60;95873.03;4991967;28;20037;-80
2023/12/04 11:49:30;;;;;;;12.98;6.53;;;;;;;6.08;45.36;95876.47;4963777;28;20428;-79
2023/12/04 11:51:56;;;;;;;9.63;6.03;;;;;;;6.10;45.16;95866.53;4966957;28;20033;-81
2023/12/04 11:54:25;;;;;;;16.42;8.15;;;;;;;5.70;45.26;95801.34;4987080;28;20145;-79
2023/12/04 11:57:10;;;;;;;14.70;7.43;;;;;;;5.88;44.69;95804.91;5004093;28;20321;-79
2023/12/04 11:59:39;;;;;;;11.93;7.00;;;;;;;6.20;44.48;95880.72;5024788;28;20037;-79
2023/12/04 12:02:09;;;;;;;15.38;8.25;;;;;;;5.87;45.15;95856.75;5000214;28;20045;-78
2023/12/04 12:04:35;;;;;;;14.00;8.15;;;;;;;5.86;45.79;95878.84;5001211;28;20033;-79
2023/12/04 12:07:02;;;;;;;18.33;8.88;;;;;;;5.10;44.82;95720.97;5013462;28;20112;-79
2023/12/04 12:09:32;;;;;;;12.00;7.20;;;;;;;5.89;46.77;95859.16;4998300;28;20377;-80
2023/12/04 12:12:03;;;;;;;15.35;8.18;;;;;;;5.93;46.90;95869.03;4996812;28;20133;-79
2023/12/04 12:14:29;;;;;;;16.23;8.35;;;;;;;5.77;46.35;95814.38;4994590;28;20041;-79
2023/12/04 12:16:58;;;;;;;20.50;9.20;;;;;;;6.00;46.21;95832.06;5004472;28;20060;-79
2023/12/04 12:19:24;;;;;;;14.15;8.75;;;;;;;6.08;45.36;95845.69;5012766;28;20048;-79
2023/12/04 12:21:51;;;;;;;18.52;8.35;;;;;;;5.98;44.90;95828.84;4967543;28;21363;-80
2023/12/04 12:24:18;;;;;;;17.90;8.52;;;;;;;5.33;44.75;95700.75;4993291;28;20057;-78
2023/12/04 12:26:46;;;;;;;21.08;9.68;;;;;;;5.69;44.73;95759.44;5017030;28;20111;-78
2023/12/04 12:29:11;;;;;;;17.15;9.65;;;;;;;5.53;44.62;95729.34;5004060;28;20040;-79
2023/12/04 12:31:37;;;;;;;19.10;9.13;;;;;;;5.94;44.73;95786.38;5003127;28;20030;-79
2023/12/04 12:34:03;;;;;;;16.70;8.68;;;;;;;6.44;44.73;95801.66;4995989;28;20080;-78
2023/12/04 12:36:32;;;;;;;20.98;8.93;;;;;;;6.71;43.80;95836.22;4997838;28;20033;-79
2023/12/04 12:39:00;;;;;;;19.55;8.55;;;;;;;6.80;43.27;95837.44;5005031;28;20096;-79
2023/12/04 12:41:29;;;;;;;22.80;10.18;;;;;;;6.72;43.13;95782.44;5010484;28;20495;-78
2023/12/04 12:43:55;;;;;;;23.13;12.25;;;;;;;7.01;44.15;95826.28;5019259;28;20148;-79
2023/12/04 12:46:22;;;;;;;32.55;13.80;;;;;;;6.94;45.36;95831.66;5019318;28;20030;-78
2023/12/04 12:48:47;;;;;;;29.92;15.25;;;;;;;6.89;45.50;95793.88;5018451;28;20025;-79
2023/12/04 12:51:13;;;;;;;27.50;14.00;;;;;;;6.51;45.11;95744.38;5021035;28;20136;-80
2023/12/04 12:53:39;;;;;;;23.48;12.70;;;;;;;6.86;44.78;95791.72;5014502;28;20052;-79
2023/12/04 12:56:06;;;;;;;23.80;13.02;;;;;;;6.72;44.68;95748.19;5021569;28;20029;-78
2023/12/04 12:58:31;;;;;;;28.98;13.38;;;;;;;6.54;44.71;95722.84;5020028;28;20063;-78
2023/12/04 13:00:57;;;;;;;26.73;13.75;;;;;;;7.18;44.36;95789.38;5008084;28;20487;-79
2023/12/04 13:03:22;;;;;;;32.47;12.90;;;;;;;7.38;44.10;95796.88;5020903;28;20273;-79
2023/12/04 13:05:49;;;;;;;24.55;13.25;;;;;;;6.83;45.69;95750.78;5008547;28;20042;-78
2023/12/04 13:08:15;;;;;;;33.45;14.65;;;;;;;7.07;45.89;95808.72;5009115;28;20452;-79
2023/12/04 13:10:41;;;;;;;27.42;13.75;;;;;;;6.50;45.53;95682.16;5017524;28;20061;-79
2023/12/04 13:13:14;;;;;;;24.45;13.52;;;;;;;6.75;45.43;95747.72;5004249;28;20042;-79
2023/12/04 13:15:41;;;;;;;23.30;13.38;;;;;;;6.85;45.26;95737.38;5014512;28;20157;-78
2023/12/04 13:18:07;;;;;;;35.03;14.18;;;;;;;7.32;45.01;95825.00;5026591;28;20041;-79
2023/12/04 13:20:34;;;;;;;24.98;14.40;;;;;;;7.24;45.04;95794.53;5023009;28;20589;-78
2023/12/04 13:23:00;;;;;;;28.85;14.05;;;;;;;7.20;45.44;95818.97;5025378;28;20033;-79
2023/12/04 13:25:26;;;;;;;27.13;14.20;;;;;;;7.02;45.02;95790.16;5023341;28;20045;-78
2023/12/04 13:27:51;;;;;;;35.55;14.75;;;;;;;7.01;45.23;95784.09;5016605;28;20114;-78
2023/12/04 13:30:17;;;;;;;25.77;13.05;;;;;;;6.82;46.06;95772.91;5040011;28;20148;-78
2023/12/04 13:32:43;;;;;;;32.63;13.38;;;;;;;6.86;45.77;95774.06;5021476;28;20033;-77
2023/12/04 13:35:08;;;;;;;27.58;13.88;;;;;;;7.14;45.92;95802.25;5023255;28;20064;-79
2023/12/04 13:37:36;;;;;;;26.30;11.85;;;;;;;7.28;46.10;95811.47;5033822;28;20037;-78
2023/12/04 13:40:12;;;;;;;30.45;13.07;;;;;;;7.35;45.37;95813.97;5022314;28;20037;-79
2023/12/04 13:45:22;;;;;;;29.73;12.60;;;;;;;6.59;46.98;95775.63;5015126;28;20056;-78
2023/12/04 13:47:48;;;;;;;28.35;11.90;;;;;;;6.83;46.91;95815.91;5018717;28;20078;-79
2023/12/04 13:50:14;;;;;;;24.92;12.23;;;;;;;6.52;47.93;95811.84;5022926;28;20136;-78
2023/12/04 13:52:41;;;;;;;23.80;11.63;;;;;;;6.18;48.05;95740.53;5017564;28;20144;-80
2023/12/04 13:56:11;;;;;;;41.90;13.13;;;;;;;6.29;48.27;95757.38;5008971;28;20469;-81
2023/12/04 13:58:08;;;;;;;23.02;10.25;;;;;;;6.31;48.64;95788.75;5001924;28;20045;-80
2023/12/04 14:00:34;;;;;;;30.35;12.13;;;;;;;5.78;49.18;95715.97;5002528;28;20029;-81
2023/12/04 14:03:03;;;;;;;30.55;12.50;;;;;;;6.07;48.92;95765.09;5021937;28;20041;-78
2023/12/04 14:05:30;;;;;;;32.00;12.70;;;;;;;6.18;48.79;95771.34;5030654;28;20042;-79
2023/12/04 14:07:56;;;;;;;26.95;11.90;;;;;;;6.19;49.67;95809.81;5034385;28;20330;-78
2023/12/04 14:10:22;;;;;;;23.77;11.88;;;;;;;6.32;49.79;95829.88;5014757;28;20112;-81
2023/12/04 14:12:48;;;;;;;24.30;12.13;;;;;;;5.72;49.71;95743.22;4986502;28;20040;-78
2023/12/04 14:15:14;;;;;;;21.65;10.63;;;;;;;5.05;49.76;95648.00;5017852;28;20432;-84
2023/12/04 14:17:39;;;;;;;37.88;12.05;;;;;;;6.19;49.79;95828.25;5023978;28;20296;-84
2023/12/04 14:20:12;;;;;;;24.35;10.40;;;;;;;4.76;50.16;95627.84;5039132;28;20040;-80
2023/12/04 14:22:41;;;;;;;21.67;10.65;;;;;;;5.62;50.33;95785.88;5036905;28;20037;-84
2023/12/04 14:25:07;;;;;;;26.45;11.13;;;;;;;4.04;51.48;95603.44;5022069;28;20421;-81
2023/12/04 14:27:35;;;;;;;30.88;11.30;;;;;;;5.41;51.81;95810.09;5028330;28;20145;-84
2023/12/04 14:30:03;;;;;;;25.02;9.52;;;;;;;3.39;52.79;95556.81;5027382;28;20029;-81
2023/12/04 14:32:29;;;;;;;20.20;9.38;;;;;;;4.33;53.52;95720.00;5026808;28;20029;-83
2023/12/04 14:34:57;;;;;;;23.00;11.00;;;;;;;3.34;54.55;95603.06;5031071;28;20030;-84
2023/12/04 14:37:23;;;;;;;19.67;10.25;;;;;;;2.85;54.13;95523.50;5033922;28;20041;-84
2023/12/04 14:39:48;;;;;;;20.98;9.82;;;;;;;4.50;54.92;95787.44;5034237;28;20270;-80
2023/12/04 14:42:14;;;;;;;19.48;9.48;;;;;;;4.54;54.91;95814.09;5050785;28;20045;-82
2023/12/04 14:44:39;;;;;;;18.70;9.60;;;;;;;4.06;54.58;95749.16;5035298;28;20556;-82
2023/12/04 14:47:08;;;;;;;26.30;11.15;;;;;;;4.28;55.19;95799.41;5014360;28;20037;-81
2023/12/04 14:49:34;;;;;;;22.20;10.43;;;;;;;4.20;55.20;95787.38;5013291;28;20041;-82
2023/12/04 14:52:00;;;;;;;23.42;11.20;;;;;;;4.00;55.56;95773.66;5020795;28;20022;-84
2023/12/04 15:08:10;;;;;;;35.67;14.07;;;;;;;3.38;57.04;95724.81;5023332;28;20040;-84
2023/12/04 15:10:43;;;;;;;30.75;13.88;;;;;;;2.96;57.11;95681.84;5025399;28;20040;-83
2023/12/04 15:16:31;;;;;;;30.13;13.20;;;;;;;3.23;57.66;95726.97;5016518;28;20330;-84
2023/12/04 15:18:43;;;;;;;22.10;10.52;;;;;;;2.54;57.76;95625.72;5024992;28;20064;-83
2023/12/04 15:21:08;;;;;;;25.38;11.23;;;;;;;2.56;57.57;95644.63;5015518;28;20041;-83
2023/12/04 15:23:35;;;;;;;26.15;12.90;;;;;;;2.78;58.06;95698.28;5019406;28;20034;-82
2023/12/04 15:26:01;;;;;;;22.20;10.77;;;;;;;3.09;58.70;95768.19;5026672;28;20093;-83
2023/12/04 15:28:27;;;;;;;23.38;11.40;;;;;;;3.52;58.65;95817.28;5018196;28;20097;-84
2023/12/04 15:30:53;;;;;;;30.73;14.68;;;;;;;3.41;59.62;95816.16;5028848;28;20049;-82
2023/12/04 15:33:20;;;;;;;30.98;13.68;;;;;;;2.79;59.88;95722.66;5024536;28;20107;-83
2023/12/04 15:35:46;;;;;;;25.88;13.82;;;;;;;2.63;59.86;95701.19;5028834;28;20374;-85
2023/12/04 15:38:11;;;;;;;32.65;13.40;;;;;;;1.98;59.83;95589.84;5025906;28;20373;-86
2023/12/04 15:40:37;;;;;;;41.50;14.73;;;;;;;2.74;60.04;95712.81;5023705;28;20456;-84
2023/12/04 15:43:02;;;;;;;45.72;14.77;;;;;;;2.78;60.21;95763.75;5032388;28;20036;-84
2023/12/04 15:45:28;;;;;;;32.40;13.50;;;;;;;3.13;60.45;95807.91;5035025;28;20149;-84
2023/12/04 15:47:54;;;;;;;33.75;14.35;;;;;;;2.70;60.12;95758.75;5015836;28;20048;-86
2023/12/04 15:50:22;;;;;;;45.53;14.05;;;;;;;2.29;60.01;95672.78;5011536;28;21257;-82
2023/12/04 15:52:48;;;;;;;30.08;13.57;;;;;;;2.87;60.33;95767.75;4997088;28;20048;-83
2023/12/04 15:55:13;;;;;;;30.50;14.38;;;;;;;2.96;60.83;95781.41;4996377;28;20567;-84
2023/12/04 15:57:39;;;;;;;29.25;13.65;;;;;;;2.60;60.94;95745.31;5001587;28;20048;-81
2023/12/04 16:00:15;;;;;;;33.70;15.32;;;;;;;1.37;61.19;95548.50;5004955;28;20038;-82
2023/12/04 16:02:41;;;;;;;33.53;15.27;;;;;;;3.03;61.08;95797.88;5006309;28;20148;-85
2023/12/04 16:05:10;;;;;;;29.70;13.10;;;;;;;2.34;61.12;95701.75;5014068;28;20033;-81
2023/12/04 16:07:36;;;;;;;35.05;13.85;;;;;;;2.76;60.96;95768.41;5003435;28;20895;-81
2023/12/04 16:10:02;;;;;;;25.73;13.13;;;;;;;2.38;61.15;95710.78;5002164;28;20038;-83
2023/12/04 16:12:27;;;;;;;30.73;14.25;;;;;;;2.54;61.37;95738.28;5004679;28;20042;-81
2023/12/04 16:14:53;;;;;;;29.85;13.52;;;;;;;2.27;61.08;95688.72;5011151;28;20036;-81
2023/12/04 16:17:18;;;;;;;29.25;12.88;;;;;;;2.78;61.29;95776.03;5038383;28;20068;-81
2023/12/04 16:19:46;;;;;;;35.67;13.48;;;;;;;2.27;61.50;95695.75;5020030;28;20056;-80
2023/12/04 16:22:15;;;;;;;32.05;12.50;;;;;;;2.94;61.17;95797.31;5018371;28;20065;-86
2023/12/04 16:24:41;;;;;;;27.70;13.30;;;;;;;2.68;61.38;95769.44;5037615;28;20029;-82
2023/12/04 16:27:06;;;;;;;25.02;11.95;;;;;;;2.93;61.44;95821.91;5024009;28;20113;-80
2023/12/04 16:29:35;;;;;;;32.95;13.82;;;;;;;2.28;61.60;95721.72;5017280;28;20034;-81
2023/12/04 16:32:01;;;;;;;37.55;14.85;;;;;;;2.88;61.73;95842.69;5023111;28;20492;-82
2023/12/04 16:34:27;;;;;;;27.77;13.55;;;;;;;2.73;62.11;95792.41;5028427;28;20060;-82
2023/12/04 16:36:53;;;;;;;33.90;14.63;;;;;;;2.78;62.00;95807.47;5023851;28;20084;-81
2023/12/04 16:39:18;;;;;;;28.67;14.20;;;;;;;2.60;62.23;95781.97;5023941;28;20053;-81
2023/12/04 16:41:47;;;;;;;36.08;13.93;;;;;;;2.24;61.59;95715.28;5036373;28;20040;-81
2023/12/04 16:44:17;;;;;;;27.83;13.52;;;;;;;2.17;61.82;95721.56;5018166;28;20439;-81
2023/12/04 16:46:44;;;;;;;34.78;14.80;;;;;;;2.69;61.91;95796.44;5009677;28;20240;-80